Time;durP1;ratioP1;P1;durP2;ratioP2;P2;SDS_P1;SDS_P2;PMS_P1;PMS_P2;Temp;Humidity;BMP_temperature;BMP_pressure;BME280_temperature;BME280_humidity;BME280_pressure;Samples;Min_cycle;Max_cycle;Signal;HPM_P1;HPM_P2
2023/08/08 00:13:53;;;;;;;;;;;;;;;;;;;;;
2023/08/08 00:20:53;;;;;;;;;;;;;;;;;;;;;
2023/08/08 00:28:30;;;;;;;;;;;;;;;;;;;;;
2023/08/08 00:32:42;;;;;;;;;;;;;;;;;;;;;
2023/08/08 00:36:32;;;;;;;;;;;;;;;;;;;;;
2023/08/08 00:44:06;;;;;;;5.13;1.93;;;16.50;97.30;;;;;;4848511;29;20422;-84
2023/08/08 00:58:01;;;;;;;;;;;;;;;;;;;;;
2023/08/08 01:01:50;;;;;;;4.07;1.93;;;17.30;96.80;;;;;;5011848;28;20464;-83
2023/08/08 01:27:21;;;;;;;1.53;1.43;;;16.40;98.20;;;;;;4963499;28;20444;-83
2023/08/08 01:50:42;;;;;;;5.20;1.60;;;16.40;98.40;;;;;;4813891;29;20570;-84
2023/08/08 02:04:39;;;;;;;2.03;1.83;;;16.50;98.80;;;;;;4915702;29;20594;-85
2023/08/08 02:08:04;;;;;;;1.60;1.50;;;16.30;98.30;;;;;;4922149;29;20598;-84
2023/08/08 02:11:26;;;;;;;2.97;1.70;;;16.60;98.60;;;;;;4835703;29;20442;-83
2023/08/08 02:14:53;;;;;;;2.60;1.93;;;16.40;98.70;;;;;;4875588;29;20547;-83
2023/08/08 02:21:51;;;;;;;2.50;2.30;;;16.30;99.40;;;;;;4938474;29;20470;-85
2023/08/08 02:24:52;;;;;;;2.27;1.83;;;15.70;99.20;;;;;;4858493;29;20537;-84
2023/08/08 02:32:13;;;;;;;1.90;1.80;;;15.70;99.20;;;;;;4863866;29;20481;-86
2023/08/08 02:35:15;;;;;;;2.70;1.50;;;16.10;99.60;;;;;;4829106;29;20657;-85
2023/08/08 02:38:07;;;;;;;1.80;1.63;;;16.00;99.50;;;;;;4854185;29;20974;-85
2023/08/08 02:41:00;;;;;;;2.57;1.97;;;16.20;99.90;;;;;;4898424;29;20479;-84
2023/08/08 02:43:50;;;;;;;2.00;1.63;;;16.40;99.90;;;;;;4918987;29;20490;-85
2023/08/08 02:47:23;;;;;;;;;;;;;;;;;;;;;
2023/08/08 02:50:01;;;;;;;2.60;1.67;;;16.60;98.80;;;;;;4937330;29;20461;-86
2023/08/08 02:56:41;;;;;;;1.87;1.70;;;15.90;99.50;;;;;;5020255;28;21206;-86
2023/08/08 02:59:31;;;;;;;;;;;;;;;;;;;;;
2023/08/08 03:02:21;;;;;;;1.80;1.40;;;16.70;99.90;;;;;;4998551;28;20446;-84
2023/08/08 03:05:47;;;;;;;2.70;1.47;;;16.10;99.90;;;;;;4997948;28;20566;-84
2023/08/08 03:08:40;;;;;;;2.00;1.90;;;16.60;99.80;;;;;;5030695;28;20453;-83
2023/08/08 03:18:42;;;;;;;2.63;1.43;;;15.80;99.80;;;;;;5079202;23;20503;-85
2023/08/08 03:21:51;;;;;;;2.33;1.50;;;16.00;99.80;;;;;;4947059;28;20480;-84
2023/08/08 03:26:00;;;;;;;1.73;1.50;;;16.20;99.90;;;;;;4965404;23;20515;-85
2023/08/08 03:32:47;;;;;;;2.03;1.67;;;16.00;99.60;;;;;;4941364;28;20535;-86
2023/08/08 03:35:36;;;;;;;1.40;1.30;;;15.70;99.60;;;;;;4951157;28;20508;-85
2023/08/08 03:38:23;;;;;;;2.10;2.00;;;15.80;99.60;;;;;;4950026;28;20880;-85
2023/08/08 03:42:07;;;;;;;2.27;1.60;;;15.80;99.40;;;;;;4902313;28;20888;-85
2023/08/08 03:45:07;;;;;;;;;;;;;;;;;;;;;
2023/08/08 03:48:59;;;;;;;1.47;1.37;;;16.90;99.90;;;;;;4853470;29;20532;-85
2023/08/08 03:51:51;;;;;;;2.23;1.30;;;15.70;99.70;;;;;;4796711;29;20903;-84
2023/08/08 03:54:59;;;;;;;2.70;1.13;;;15.60;99.90;;;;;;4815499;29;20549;-85
2023/08/08 04:15:29;;;;;;;3.13;1.57;;;15.30;99.90;;;;;;4971711;23;20494;-84
2023/08/08 04:18:22;;;;;;;2.67;1.27;;;15.70;99.90;;;;;;4868014;29;21098;-86
2023/08/08 04:25:47;;;;;;;;;;;;;;;;;;;;;
2023/08/08 04:28:47;;;;;;;2.60;1.83;;;16.10;99.90;;;;;;4817848;29;20990;-84
2023/08/08 04:32:02;;;;;;;1.70;1.60;;;15.60;99.90;;;;;;4816844;29;20454;-86
2023/08/08 04:55:12;;;;;;;;;;;;;;;;;;;;;
2023/08/08 10:01:38;;;;;;;4.63;2.97;;;20.20;91.70;;;;;;4758741;30;21069;-84
2023/08/08 10:08:48;;;;;;;;;;;;;;;;;;;;;
2023/08/08 10:16:12;;;;;;;9.47;4.13;;;19.50;91.70;;;;;;4756178;30;20545;-84
2023/08/08 11:11:50;;;;;;;3.33;1.97;;;20.30;85.60;;;;;;4770156;29;20583;-83
2023/08/08 11:27:49;;;;;;;4.70;2.17;;;20.20;86.90;;;;;;4775430;29;20464;-83
2023/08/08 11:34:58;;;;;;;3.83;1.90;;;20.20;85.60;;;;;;4877486;29;20480;-84
2023/08/08 11:41:57;;;;;;;2.50;1.63;;;19.70;83.50;;;;;;4783248;29;20523;-82
2023/08/08 11:45:59;;;;;;;;;;;;;;;;;;;;;
2023/08/08 11:49:20;;;;;;;3.03;1.93;;;21.40;83.10;;;;;;4728195;30;21058;-84
2023/08/08 11:52:31;;;;;;;2.50;2.23;;;21.50;80.60;;;;;;4682133;30;20560;-83
2023/08/08 11:55:59;;;;;;;;;;;;;;;;;;;;;
2023/08/08 11:59:51;;;;;;;;;;;;;;;;;;;;;
2023/08/08 12:10:07;;;;;;;;;;;;;;;;;;;;;
2023/08/08 12:13:27;;;;;;;;;;;;;;;;;;;;;
2023/08/08 12:27:41;;;;;;;4.10;2.87;;;20.60;81.50;;;;;;4822154;29;20570;-83
2023/08/08 12:38:38;;;;;;;;;;;;;;;;;;;;;
2023/08/08 12:53:08;;;;;;;3.77;1.67;;;20.30;82.20;;;;;;4956260;28;20492;-85
2023/08/08 13:19:54;;;;;;;2.47;2.27;;;20.40;89.40;;;;;;4784345;29;20441;-85
2023/08/08 13:23:18;;;;;;;3.13;2.00;;;20.70;91.30;;;;;;4769716;30;20477;-85
2023/08/08 13:26:31;;;;;;;4.30;1.80;;;20.40;90.60;;;;;;4781127;30;20492;-85
2023/08/08 13:29:42;;;;;;;2.80;2.57;;;20.50;89.90;;;;;;4780447;30;20478;-84
2023/08/08 13:32:46;;;;;;;1.73;1.57;;;19.90;87.10;;;;;;4841891;29;20498;-84
2023/08/08 13:35:31;;;;;;;2.53;1.57;;;20.40;85.80;;;;;;4842130;29;20579;-83
2023/08/08 13:38:24;;;;;;;2.07;1.60;;;20.30;83.60;;;;;;4897328;29;20459;-84
2023/08/08 13:41:08;;;;;;;2.17;1.73;;;19.90;83.70;;;;;;4936743;29;20469;-84
2023/08/08 13:44:18;;;;;;;3.37;1.60;;;21.00;84.30;;;;;;4954052;29;20574;-84
2023/08/08 13:47:36;;;;;;;2.40;1.60;;;20.40;83.20;;;;;;4953617;28;20491;-84
2023/08/08 13:51:23;;;;;;;1.77;1.40;;;20.70;83.10;;;;;;4937601;29;20464;-83
2023/08/08 13:54:27;;;;;;;2.70;1.53;;;20.50;82.20;;;;;;4905623;29;20536;-83
2023/08/08 13:57:45;;;;;;;3.23;1.67;;;20.40;82.50;;;;;;4897432;29;20482;-83
2023/08/08 14:01:20;;;;;;;3.13;1.60;;;20.40;82.20;;;;;;4889073;29;22255;-81
2023/08/08 14:05:06;;;;;;;3.90;1.50;;;20.30;82.80;;;;;;4825553;29;20485;-83
2023/08/08 14:08:02;;;;;;;2.40;1.63;;;20.20;84.00;;;;;;4790508;29;20474;-86
2023/08/08 14:11:22;;;;;;;2.53;1.67;;;20.10;88.30;;;;;;4814277;29;20518;-85
2023/08/08 14:14:37;;;;;;;2.80;1.87;;;20.10;88.20;;;;;;4854890;29;20477;-83
2023/08/08 14:18:19;;;;;;;2.93;2.70;;;20.30;87.00;;;;;;4820053;29;20523;-86
2023/08/08 14:25:37;;;;;;;2.27;1.50;;;20.30;86.30;;;;;;4810208;29;20912;-84
2023/08/08 14:33:12;;;;;;;5.67;1.50;;;20.20;85.90;;;;;;4773500;29;20472;-86
2023/08/08 14:36:49;;;;;;;3.77;1.47;;;20.70;85.30;;;;;;4786873;29;20441;-84
2023/08/08 14:44:00;;;;;;;3.60;2.47;;;20.80;82.50;;;;;;4765246;29;20461;-85
2023/08/08 14:47:33;;;;;;;3.43;1.37;;;21.50;82.20;;;;;;4751769;30;20577;-83
2023/08/08 14:52:19;;;;;;;3.43;1.70;;;20.90;80.90;;;;;;4776788;29;20468;-85
2023/08/08 14:55:44;;;;;;;3.53;1.30;;;21.20;80.70;;;;;;4786360;29;20488;-84
2023/08/08 15:07:29;;;;;;;;;;;;;;;;;;;;;
2023/08/08 15:11:08;;;;;;;;;;;;;;;;;;;;;
2023/08/08 15:22:48;;;;;;;;;;;;;;;;;;;;;
2023/08/08 15:30:30;;;;;;;;;;;;;;;;;;;;;
2023/08/08 15:37:13;;;;;;;2.20;1.67;;;21.30;80.70;;;;;;4833030;29;20458;-85
2023/08/08 15:44:42;;;;;;;1.93;1.10;;;21.60;81.60;;;;;;4827173;29;20822;-84
2023/08/08 15:48:20;;;;;;;;;;;;;;;;;;;;;
2023/08/08 15:52:21;;;;;;;2.10;1.47;;;21.50;82.20;;;;;;4754153;30;20469;-84
2023/08/08 15:59:31;;;;;;;1.67;1.30;;;22.00;79.90;;;;;;4751698;29;20958;-84
2023/08/08 16:06:41;;;;;;;;;;;;;;;;;;;;;
2023/08/08 16:21:06;;;;;;;2.20;1.50;;;21.60;87.80;;;;;;4870925;29;20858;-83
2023/08/08 16:24:13;;;;;;;4.50;1.73;;;21.90;88.00;;;;;;4858546;29;20490;-83
2023/08/08 16:30:24;;;;;;;2.57;1.53;;;21.30;87.40;;;;;;4876347;29;20500;-83
2023/08/08 16:36:50;;;;;;;2.80;1.50;;;21.00;88.40;;;;;;4876412;29;20736;-83
2023/08/08 16:39:42;;;;;;;3.47;1.97;;;20.90;88.50;;;;;;4827563;29;20555;-84
2023/08/08 16:42:47;;;;;;;;;;;;;;;;;;;;;
2023/08/08 16:59:40;;;;;;;4.47;2.10;;;20.70;89.40;;;;;;5410382;23;20548;-84
2023/08/08 17:28:17;;;;;;;2.60;2.07;;;20.50;90.20;;;;;;4987429;28;20583;-83
2023/08/08 17:31:31;;;;;;;2.60;1.90;;;20.50;90.40;;;;;;4989237;28;20462;-85
2023/08/08 17:37:58;;;;;;;2.13;1.80;;;19.80;90.10;;;;;;4991264;28;20491;-85
2023/08/08 17:44:24;;;;;;;3.37;1.93;;;20.50;90.50;;;;;;4967259;28;20538;-85
2023/08/08 17:46:56;;;;;;;2.03;1.60;;;20.80;90.70;;;;;;4981081;28;20487;-83
2023/08/08 17:49:37;;;;;;;3.70;1.87;;;20.80;91.10;;;;;;4981635;28;20516;-85
2023/08/08 17:52:20;;;;;;;2.20;1.30;;;20.80;91.00;;;;;;4980348;28;20456;-83
2023/08/08 17:54:57;;;;;;;2.20;1.47;;;21.20;91.10;;;;;;4974612;28;20483;-84
2023/08/08 17:57:32;;;;;;;4.07;2.03;;;20.50;90.80;;;;;;5001363;28;20447;-85
2023/08/08 18:00:17;;;;;;;2.20;1.40;;;20.50;90.60;;;;;;4999650;28;20472;-84
2023/08/08 18:02:47;;;;;;;2.03;1.73;;;20.70;90.60;;;;;;4978251;28;20467;-82
2023/08/08 18:05:32;;;;;;;2.67;1.87;;;21.50;91.80;;;;;;4984870;28;20479;-85
2023/08/08 18:11:37;;;;;;;3.40;2.00;;;20.70;90.90;;;;;;5475667;23;20508;-81
2023/08/08 18:14:33;;;;;;;5.80;4.27;;;20.50;90.90;;;;;;4977819;28;20471;-83
2023/08/08 18:17:05;;;;;;;2.77;2.00;;;20.50;91.10;;;;;;4948160;28;21179;-85
2023/08/08 18:19:51;;;;;;;4.17;2.00;;;20.40;90.90;;;;;;4969662;28;21432;-84
2023/08/08 18:22:25;;;;;;;1.47;1.33;;;20.60;91.00;;;;;;4969832;28;21754;-83
2023/08/08 18:25:03;;;;;;;5.17;2.50;;;21.10;91.90;;;;;;4957487;28;20484;-83
2023/08/08 18:28:05;;;;;;;1.83;1.30;;;20.20;90.20;;;;;;5314349;23;20515;-83
2023/08/08 18:31:15;;;;;;;1.80;1.50;;;21.20;90.80;;;;;;5224712;23;20501;-82
2023/08/08 18:33:57;;;;;;;1.70;1.30;;;20.60;90.50;;;;;;4961119;28;20544;-84
2023/08/08 18:36:34;;;;;;;1.50;1.40;;;20.20;90.90;;;;;;4984661;28;21625;-86
2023/08/08 18:39:16;;;;;;;4.63;1.93;;;19.50;90.70;;;;;;4986393;28;20451;-84
2023/08/08 18:42:03;;;;;;;2.23;1.70;;;20.20;91.10;;;;;;4986477;28;20463;-83
2023/08/08 18:44:52;;;;;;;2.67;1.70;;;20.00;92.40;;;;;;4985409;28;20481;-83
2023/08/08 18:47:43;;;;;;;2.53;1.83;;;20.20;91.70;;;;;;4988281;28;20503;-84
2023/08/08 18:50:17;;;;;;;3.27;1.70;;;19.90;91.60;;;;;;4982931;28;20659;-85
2023/08/08 18:52:54;;;;;;;2.40;1.33;;;20.10;92.20;;;;;;4999418;28;20486;-85
2023/08/08 18:55:24;;;;;;;1.97;1.27;;;19.90;92.20;;;;;;4984187;28;20466;-85
2023/08/08 18:57:59;;;;;;;1.77;1.30;;;19.80;92.80;;;;;;4984303;28;20467;-81
2023/08/08 19:03:54;;;;;;;1.60;1.40;;;20.30;92.80;;;;;;4992068;28;20486;-86
2023/08/08 19:06:39;;;;;;;2.30;2.03;;;20.00;93.80;;;;;;4979100;28;20529;-81
2023/08/08 19:09:11;;;;;;;3.30;1.60;;;19.90;92.90;;;;;;4964616;28;20555;-85
2023/08/08 19:11:48;;;;;;;3.53;2.10;;;20.80;93.70;;;;;;4967962;28;20984;-83
2023/08/08 19:14:23;;;;;;;2.67;1.57;;;19.90;93.00;;;;;;4964567;28;20467;-84
2023/08/08 19:16:57;;;;;;;2.20;1.60;;;19.80;93.00;;;;;;4962849;28;20650;-85
2023/08/08 19:19:35;;;;;;;2.53;1.87;;;20.80;94.20;;;;;;4958937;28;20843;-83
2023/08/08 19:22:02;;;;;;;2.77;1.73;;;19.70;93.60;;;;;;4958147;28;20989;-84
2023/08/08 19:24:35;;;;;;;2.10;1.40;;;20.20;93.80;;;;;;4984774;23;20500;-85
2023/08/08 19:27:06;;;;;;;4.40;1.77;;;19.30;93.60;;;;;;4957691;28;21103;-82
2023/08/08 19:29:41;;;;;;;1.50;1.40;;;19.90;93.50;;;;;;4962271;28;20464;-82
2023/08/08 19:37:30;;;;;;;4.40;2.50;;;19.50;93.90;;;;;;5039837;23;20555;-82
2023/08/08 19:39:57;;;;;;;2.47;1.83;;;19.40;94.10;;;;;;4968301;28;20459;-85
2023/08/08 19:42:24;;;;;;;1.63;1.30;;;19.40;94.50;;;;;;4975731;28;20452;-85
2023/08/08 19:44:52;;;;;;;2.10;1.20;;;19.30;94.90;;;;;;4961218;28;20482;-85
2023/08/08 19:47:18;;;;;;;1.80;1.50;;;19.20;95.30;;;;;;4966727;28;20483;-82
2023/08/08 19:49:45;;;;;;;1.20;1.10;;;19.20;95.80;;;;;;4953240;28;20472;-83
2023/08/08 19:52:12;;;;;;;1.50;1.40;;;19.20;96.30;;;;;;4950587;28;20467;-84
2023/08/08 19:54:40;;;;;;;2.90;1.60;;;19.00;96.90;;;;;;4956999;28;20490;-84
2023/08/08 19:57:08;;;;;;;1.93;1.40;;;19.00;97.40;;;;;;4957707;28;20546;-85
2023/08/08 19:59:35;;;;;;;2.17;1.47;;;19.00;98.00;;;;;;4972619;28;20473;-84
2023/08/08 20:02:06;;;;;;;2.63;1.80;;;18.90;98.50;;;;;;4949489;28;20471;-83
2023/08/08 20:04:33;;;;;;;2.63;1.60;;;18.80;99.20;;;;;;4948821;28;20530;-84
2023/08/08 20:07:03;;;;;;;1.63;1.27;;;18.80;99.90;;;;;;4954174;28;20486;-85
2023/08/08 20:18:30;;;;;;;5.30;2.90;;;18.60;99.90;;;;;;4884417;29;20552;-82
2023/08/08 20:21:13;;;;;;;1.50;1.40;;;18.80;99.90;;;;;;4886843;29;20900;-84
2023/08/08 20:24:16;;;;;;;1.83;1.40;;;18.60;99.90;;;;;;4906390;28;20472;-83
2023/08/08 20:26:56;;;;;;;1.80;1.63;;;18.50;99.90;;;;;;4955729;28;20471;-83
2023/08/08 20:29:34;;;;;;;5.03;1.97;;;18.50;99.90;;;;;;4959311;28;21619;-83
2023/08/08 20:37:45;;;;;;;1.60;1.30;;;18.40;99.90;;;;;;4956823;28;20491;-86
2023/08/08 20:40:12;;;;;;;1.70;1.60;;;18.40;99.90;;;;;;4943508;29;20456;-82
2023/08/08 20:42:39;;;;;;;2.13;1.80;;;18.40;99.90;;;;;;4949862;28;20445;-85
2023/08/08 20:45:08;;;;;;;1.53;1.33;;;18.40;99.90;;;;;;4942464;28;20577;-84
2023/08/08 20:47:35;;;;;;;2.77;1.50;;;18.30;99.90;;;;;;4914637;29;20486;-83
2023/08/08 20:50:07;;;;;;;2.93;2.03;;;18.30;99.90;;;;;;4930986;29;21345;-84
2023/08/08 20:52:37;;;;;;;2.10;1.90;;;18.20;99.90;;;;;;4895841;29;21288;-84
2023/08/08 20:55:08;;;;;;;2.07;1.97;;;18.20;99.90;;;;;;4899198;29;20486;-83
2023/08/08 20:57:36;;;;;;;3.77;1.90;;;18.20;99.90;;;;;;4923333;29;20465;-84
2023/08/08 21:00:16;;;;;;;3.83;2.60;;;18.20;99.90;;;;;;4934499;29;21004;-83
2023/08/08 21:02:46;;;;;;;2.23;2.03;;;18.20;99.90;;;;;;4913228;29;20482;-83
2023/08/08 21:05:13;;;;;;;2.53;1.97;;;18.10;99.90;;;;;;4921496;29;20481;-84
2023/08/08 21:07:43;;;;;;;2.83;2.20;;;18.10;99.90;;;;;;4911085;29;20548;-86
2023/08/08 21:10:10;;;;;;;3.67;2.20;;;18.10;99.90;;;;;;4917145;29;22199;-82
2023/08/08 21:12:37;;;;;;;2.53;2.33;;;18.20;99.90;;;;;;4917832;29;22002;-83
2023/08/08 21:15:05;;;;;;;3.10;2.10;;;18.20;99.90;;;;;;4937162;28;20560;-83
2023/08/08 21:17:42;;;;;;;2.20;1.97;;;18.60;99.90;;;;;;4932086;29;20853;-85
2023/08/08 21:20:34;;;;;;;2.00;1.80;;;18.50;99.90;;;;;;4926239;29;21394;-85
2023/08/08 21:23:56;;;;;;;3.00;2.13;;;18.80;99.90;;;;;;4934409;29;20520;-84
2023/08/08 21:26:37;;;;;;;4.33;2.20;;;18.40;99.90;;;;;;4940026;29;20489;-84
2023/08/08 21:30:09;;;;;;;3.47;2.30;;;18.20;99.90;;;;;;4904694;28;20477;-83
2023/08/08 21:33:03;;;;;;;2.43;2.23;;;18.10;99.90;;;;;;4884520;29;20442;-84
2023/08/08 21:38:33;;;;;;;4.40;2.10;;;18.00;99.90;;;;;;4620281;23;20472;-83
2023/08/08 21:41:18;;;;;;;6.80;2.50;;;17.80;99.90;;;;;;5290898;23;20543;-82
2023/08/08 21:46:39;;;;;;;2.47;2.27;;;18.00;99.90;;;;;;5148847;23;20475;-83
2023/08/08 21:49:06;;;;;;;2.77;2.50;;;18.20;99.90;;;;;;5324348;23;20469;-83
2023/08/08 21:51:54;;;;;;;4.10;2.40;;;17.90;99.90;;;;;;5023013;23;20447;-82
2023/08/08 21:59:46;;;;;;;2.27;1.90;;;17.70;99.90;;;;;;5356073;23;20564;-83
2023/08/08 22:07:49;;;;;;;6.60;2.50;;;18.00;99.90;;;;;;5004252;23;20591;-83
2023/08/08 22:10:16;;;;;;;5.87;2.93;;;18.70;99.90;;;;;;4961918;28;20476;-84
2023/08/08 22:12:44;;;;;;;3.53;2.83;;;17.80;99.90;;;;;;4976678;28;20453;-83
2023/08/08 22:15:11;;;;;;;4.43;3.17;;;17.70;99.90;;;;;;4972182;28;20471;-83
2023/08/08 22:17:38;;;;;;;2.60;2.40;;;17.90;99.90;;;;;;4984738;28;20459;-83
2023/08/08 22:20:30;;;;;;;2.47;2.03;;;18.60;99.90;;;;;;4974635;28;20444;-83
2023/08/08 22:22:57;;;;;;;3.07;2.73;;;17.60;99.90;;;;;;4974593;28;20483;-82
2023/08/08 22:25:53;;;;;;;4.23;2.70;;;17.60;99.90;;;;;;4972070;28;20539;-83
2023/08/08 22:31:10;;;;;;;4.10;3.30;;;17.70;99.90;;;;;;5026210;23;20521;-83
2023/08/08 22:33:37;;;;;;;4.13;3.30;;;17.80;99.90;;;;;;4966958;28;20565;-83
2023/08/08 22:36:07;;;;;;;6.00;4.53;;;17.80;99.90;;;;;;4955922;28;20485;-83
2023/08/08 22:38:34;;;;;;;4.17;3.37;;;18.60;99.90;;;;;;4945416;28;20452;-83
2023/08/08 22:41:21;;;;;;;5.13;3.77;;;18.20;99.90;;;;;;4958809;28;21652;-85
2023/08/08 22:43:52;;;;;;;4.97;3.43;;;17.60;99.90;;;;;;4960089;28;20653;-83
2023/08/08 22:46:23;;;;;;;4.97;3.83;;;18.10;99.90;;;;;;4958999;28;20532;-84
2023/08/08 22:48:50;;;;;;;5.73;4.20;;;17.80;99.90;;;;;;4960221;28;20480;-83
2023/08/08 22:51:21;;;;;;;6.07;5.03;;;18.70;99.90;;;;;;4958870;28;20467;-83
2023/08/08 22:53:48;;;;;;;4.43;4.03;;;18.30;99.90;;;;;;4955126;28;20932;-83
2023/08/08 22:56:15;;;;;;;4.70;3.80;;;17.70;99.90;;;;;;4958445;28;20456;-83
2023/08/08 22:58:42;;;;;;;6.10;3.20;;;18.60;99.90;;;;;;4954133;28;22049;-83
2023/08/08 23:01:12;;;;;;;5.30;3.10;;;17.90;99.90;;;;;;4936079;28;20547;-83
2023/08/08 23:03:45;;;;;;;3.50;3.20;;;17.90;99.90;;;;;;4942783;28;20468;-83
2023/08/08 23:06:20;;;;;;;5.33;3.30;;;17.80;99.90;;;;;;4937848;28;20460;-84
2023/08/08 23:08:49;;;;;;;3.90;3.60;;;17.80;99.90;;;;;;4957407;28;20480;-84
2023/08/08 23:11:19;;;;;;;3.80;3.20;;;17.90;99.90;;;;;;4956459;28;20551;-83
2023/08/08 23:13:46;;;;;;;3.23;2.93;;;18.10;99.90;;;;;;4935341;28;20485;-84
2023/08/08 23:16:12;;;;;;;4.20;3.00;;;17.80;99.90;;;;;;4948279;28;20452;-83
2023/08/08 23:18:39;;;;;;;3.20;2.73;;;18.20;99.90;;;;;;4941451;28;20452;-84
2023/08/08 23:21:05;;;;;;;3.00;2.80;;;17.90;99.90;;;;;;4949652;28;20461;-83
2023/08/08 23:23:32;;;;;;;4.53;2.90;;;17.90;99.90;;;;;;4950024;28;20484;-83
2023/08/08 23:25:59;;;;;;;3.60;2.83;;;17.90;99.90;;;;;;4950279;28;20468;-81
2023/08/08 23:28:25;;;;;;;3.03;2.73;;;18.00;99.90;;;;;;4940819;28;20495;-84
2023/08/08 23:30:52;;;;;;;4.47;2.60;;;18.00;99.90;;;;;;4933141;28;20995;-83
2023/08/08 23:33:19;;;;;;;3.00;2.40;;;18.00;99.90;;;;;;4949976;28;20456;-83
2023/08/08 23:35:50;;;;;;;2.40;2.13;;;18.00;99.90;;;;;;4950809;28;20519;-81
2023/08/08 23:38:17;;;;;;;4.20;3.20;;;17.90;99.90;;;;;;4947808;28;20467;-83
2023/08/08 23:40:44;;;;;;;2.70;2.50;;;17.90;99.90;;;;;;4932750;28;20460;-84
2023/08/08 23:43:11;;;;;;;3.70;2.60;;;17.80;99.90;;;;;;4951016;28;20605;-84
2023/08/08 23:45:38;;;;;;;3.03;2.60;;;18.00;99.90;;;;;;4961128;28;20469;-85
2023/08/08 23:48:05;;;;;;;2.60;2.40;;;17.90;99.90;;;;;;4965845;28;20559;-86
2023/08/08 23:50:32;;;;;;;6.20;3.00;;;18.00;99.90;;;;;;4943422;28;20463;-84
2023/08/08 23:52:59;;;;;;;4.20;2.47;;;18.00;99.90;;;;;;4950697;28;20469;-83
2023/08/08 23:55:26;;;;;;;3.83;2.73;;;17.90;99.90;;;;;;4937108;28;20473;-85
2023/08/08 23:57:53;;;;;;;2.43;2.20;;;17.80;99.90;;;;;;4935452;28;20471;-85
